sensor_id;sensor_type;location;lat;lon;timestamp;P1;durP1;ratioP1;P2;durP2;ratioP2
19235;SDS011;9752;54.270;12.470;2024-03-22T00:01:52;40.80;;;25.47;;
19235;SDS011;9752;54.270;12.470;2024-03-22T00:06:55;42.40;;;26.33;;
19235;SDS011;9752;54.270;12.470;2024-03-22T00:11:57;45.63;;;25.90;;
19235;SDS011;9752;54.270;12.470;2024-03-22T00:16:59;43.63;;;24.87;;
19235;SDS011;9752;54.270;12.470;2024-03-22T00:22:02;46.70;;;26.77;;
19235;SDS011;9752;54.270;12.470;2024-03-22T00:27:03;51.17;;;29.27;;
19235;SDS011;9752;54.270;12.470;2024-03-22T00:32:05;44.53;;;27.00;;
19235;SDS011;9752;54.270;12.470;2024-03-22T00:37:09;36.77;;;24.83;;
19235;SDS011;9752;54.270;12.470;2024-03-22T00:42:10;49.83;;;25.93;;
19235;SDS011;9752;54.270;12.470;2024-03-22T00:47:12;50.20;;;27.37;;
19235;SDS011;9752;54.270;12.470;2024-03-22T00:52:15;50.03;;;26.60;;
19235;SDS011;9752;54.270;12.470;2024-03-22T00:57:16;55.27;;;28.47;;
19235;SDS011;9752;54.270;12.470;2024-03-22T01:02:18;47.67;;;25.93;;
19235;SDS011;9752;54.270;12.470;2024-03-22T01:07:21;48.63;;;26.23;;
19235;SDS011;9752;54.270;12.470;2024-03-22T01:12:23;55.73;;;27.87;;
19235;SDS011;9752;54.270;12.470;2024-03-22T01:17:24;49.27;;;27.00;;
19235;SDS011;9752;54.270;12.470;2024-03-22T01:22:27;56.37;;;30.20;;
19235;SDS011;9752;54.270;12.470;2024-03-22T01:27:29;53.33;;;29.00;;
19235;SDS011;9752;54.270;12.470;2024-03-22T01:32:30;61.73;;;30.30;;
19235;SDS011;9752;54.270;12.470;2024-03-22T01:37:33;52.00;;;27.63;;
19235;SDS011;9752;54.270;12.470;2024-03-22T01:42:35;50.33;;;28.23;;
19235;SDS011;9752;54.270;12.470;2024-03-22T01:47:37;48.73;;;29.10;;
19235;SDS011;9752;54.270;12.470;2024-03-22T01:52:40;62.57;;;32.00;;
19235;SDS011;9752;54.270;12.470;2024-03-22T01:57:42;57.07;;;31.23;;
19235;SDS011;9752;54.270;12.470;2024-03-22T02:02:47;55.33;;;30.93;;
19235;SDS011;9752;54.270;12.470;2024-03-22T02:07:50;56.73;;;30.13;;
19235;SDS011;9752;54.270;12.470;2024-03-22T02:12:52;50.10;;;28.40;;
19235;SDS011;9752;54.270;12.470;2024-03-22T02:17:53;50.47;;;28.77;;
19235;SDS011;9752;54.270;12.470;2024-03-22T02:22:56;44.27;;;26.80;;
19235;SDS011;9752;54.270;12.470;2024-03-22T02:27:59;48.37;;;29.03;;
19235;SDS011;9752;54.270;12.470;2024-03-22T02:33:01;49.83;;;27.97;;
19235;SDS011;9752;54.270;12.470;2024-03-22T02:38:02;51.23;;;29.13;;
19235;SDS011;9752;54.270;12.470;2024-03-22T02:43:06;52.33;;;28.10;;
19235;SDS011;9752;54.270;12.470;2024-03-22T02:48:07;47.77;;;28.50;;
19235;SDS011;9752;54.270;12.470;2024-03-22T02:53:09;51.70;;;29.37;;
19235;SDS011;9752;54.270;12.470;2024-03-22T02:58:12;51.73;;;29.33;;
19235;SDS011;9752;54.270;12.470;2024-03-22T03:03:13;45.43;;;27.07;;
19235;SDS011;9752;54.270;12.470;2024-03-22T03:08:15;53.50;;;29.17;;
19235;SDS011;9752;54.270;12.470;2024-03-22T03:13:18;48.20;;;28.33;;
19235;SDS011;9752;54.270;12.470;2024-03-22T03:18:19;52.93;;;28.17;;
19235;SDS011;9752;54.270;12.470;2024-03-22T03:23:21;49.87;;;26.20;;
19235;SDS011;9752;54.270;12.470;2024-03-22T03:28:24;48.23;;;27.00;;
19235;SDS011;9752;54.270;12.470;2024-03-22T03:33:26;45.27;;;26.17;;
19235;SDS011;9752;54.270;12.470;2024-03-22T03:38:27;42.50;;;25.80;;
19235;SDS011;9752;54.270;12.470;2024-03-22T03:43:30;46.03;;;25.23;;
19235;SDS011;9752;54.270;12.470;2024-03-22T03:48:32;48.10;;;26.10;;
19235;SDS011;9752;54.270;12.470;2024-03-22T03:53:34;39.87;;;25.23;;
19235;SDS011;9752;54.270;12.470;2024-03-22T03:58:37;46.20;;;25.60;;
19235;SDS011;9752;54.270;12.470;2024-03-22T04:03:38;46.33;;;26.23;;
19235;SDS011;9752;54.270;12.470;2024-03-22T04:08:40;49.03;;;25.43;;
19235;SDS011;9752;54.270;12.470;2024-03-22T04:13:43;44.20;;;25.17;;
19235;SDS011;9752;54.270;12.470;2024-03-22T04:18:45;40.27;;;25.17;;
19235;SDS011;9752;54.270;12.470;2024-03-22T04:23:46;35.73;;;23.43;;
19235;SDS011;9752;54.270;12.470;2024-03-22T04:28:49;44.27;;;23.83;;
19235;SDS011;9752;54.270;12.470;2024-03-22T04:33:51;41.40;;;24.03;;
19235;SDS011;9752;54.270;12.470;2024-03-22T04:38:52;40.53;;;23.80;;
19235;SDS011;9752;54.270;12.470;2024-03-22T04:43:55;48.10;;;25.83;;
19235;SDS011;9752;54.270;12.470;2024-03-22T04:48:57;35.90;;;22.50;;
19235;SDS011;9752;54.270;12.470;2024-03-22T04:53:59;42.43;;;25.97;;
19235;SDS011;9752;54.270;12.470;2024-03-22T04:59:01;44.83;;;27.77;;
19235;SDS011;9752;54.270;12.470;2024-03-22T05:04:03;48.60;;;25.90;;
19235;SDS011;9752;54.270;12.470;2024-03-22T05:09:05;42.40;;;24.73;;
19235;SDS011;9752;54.270;12.470;2024-03-22T05:14:11;46.30;;;25.77;;
19235;SDS011;9752;54.270;12.470;2024-03-22T05:19:13;40.43;;;24.57;;
19235;SDS011;9752;54.270;12.470;2024-03-22T05:24:14;40.50;;;24.57;;
19235;SDS011;9752;54.270;12.470;2024-03-22T05:29:17;47.40;;;25.97;;
19235;SDS011;9752;54.270;12.470;2024-03-22T05:34:18;42.87;;;25.73;;
19235;SDS011;9752;54.270;12.470;2024-03-22T05:39:20;39.23;;;24.07;;
19235;SDS011;9752;54.270;12.470;2024-03-22T05:44:23;52.23;;;27.33;;
19235;SDS011;9752;54.270;12.470;2024-03-22T05:49:24;44.00;;;27.03;;
19235;SDS011;9752;54.270;12.470;2024-03-22T05:54:26;43.83;;;28.43;;
19235;SDS011;9752;54.270;12.470;2024-03-22T05:59:29;42.87;;;25.70;;
19235;SDS011;9752;54.270;12.470;2024-03-22T06:04:31;44.37;;;27.17;;
19235;SDS011;9752;54.270;12.470;2024-03-22T06:09:32;44.47;;;27.97;;
19235;SDS011;9752;54.270;12.470;2024-03-22T06:14:47;50.30;;;31.73;;
19235;SDS011;9752;54.270;12.470;2024-03-22T06:19:48;53.30;;;31.47;;
19235;SDS011;9752;54.270;12.470;2024-03-22T06:24:50;50.37;;;30.30;;
19235;SDS011;9752;54.270;12.470;2024-03-22T06:29:53;53.50;;;29.50;;
19235;SDS011;9752;54.270;12.470;2024-03-22T06:34:54;46.30;;;29.23;;
19235;SDS011;9752;54.270;12.470;2024-03-22T06:39:56;57.70;;;31.90;;
19235;SDS011;9752;54.270;12.470;2024-03-22T06:45:00;54.13;;;33.87;;
19235;SDS011;9752;54.270;12.470;2024-03-22T06:50:02;58.70;;;35.00;;
19235;SDS011;9752;54.270;12.470;2024-03-22T06:55:04;51.17;;;31.67;;
19235;SDS011;9752;54.270;12.470;2024-03-22T07:00:09;56.07;;;33.17;;
19235;SDS011;9752;54.270;12.470;2024-03-22T07:05:11;60.03;;;33.97;;
19235;SDS011;9752;54.270;12.470;2024-03-22T07:10:12;59.63;;;33.10;;
19235;SDS011;9752;54.270;12.470;2024-03-22T07:15:16;60.17;;;36.20;;
19235;SDS011;9752;54.270;12.470;2024-03-22T07:20:18;55.87;;;33.50;;
19235;SDS011;9752;54.270;12.470;2024-03-22T07:25:19;57.10;;;32.77;;
19235;SDS011;9752;54.270;12.470;2024-03-22T07:30:23;55.27;;;34.37;;
19235;SDS011;9752;54.270;12.470;2024-03-22T07:35:24;57.80;;;32.70;;
19235;SDS011;9752;54.270;12.470;2024-03-22T07:40:26;65.37;;;36.17;;
19235;SDS011;9752;54.270;12.470;2024-03-22T07:45:29;52.40;;;33.33;;
19235;SDS011;9752;54.270;12.470;2024-03-22T07:50:30;58.27;;;36.37;;
19235;SDS011;9752;54.270;12.470;2024-03-22T07:55:32;58.83;;;38.17;;
19235;SDS011;9752;54.270;12.470;2024-03-22T08:00:35;53.13;;;33.87;;
19235;SDS011;9752;54.270;12.470;2024-03-22T08:05:36;60.83;;;38.47;;
19235;SDS011;9752;54.270;12.470;2024-03-22T08:10:38;56.03;;;34.60;;
19235;SDS011;9752;54.270;12.470;2024-03-22T08:15:41;58.97;;;35.60;;
19235;SDS011;9752;54.270;12.470;2024-03-22T08:20:43;59.07;;;35.40;;
19235;SDS011;9752;54.270;12.470;2024-03-22T08:25:45;57.00;;;36.63;;
19235;SDS011;9752;54.270;12.470;2024-03-22T08:30:48;59.57;;;35.83;;
19235;SDS011;9752;54.270;12.470;2024-03-22T08:35:50;60.47;;;37.87;;
19235;SDS011;9752;54.270;12.470;2024-03-22T08:40:51;58.37;;;37.03;;
19235;SDS011;9752;54.270;12.470;2024-03-22T08:45:54;58.43;;;36.70;;
19235;SDS011;9752;54.270;12.470;2024-03-22T08:50:57;64.70;;;38.20;;
19235;SDS011;9752;54.270;12.470;2024-03-22T08:55:59;64.63;;;40.13;;
19235;SDS011;9752;54.270;12.470;2024-03-22T09:01:02;66.10;;;41.83;;
19235;SDS011;9752;54.270;12.470;2024-03-22T09:06:04;65.57;;;40.30;;
19235;SDS011;9752;54.270;12.470;2024-03-22T09:11:06;66.23;;;41.20;;
19235;SDS011;9752;54.270;12.470;2024-03-22T09:16:09;61.07;;;39.67;;
19235;SDS011;9752;54.270;12.470;2024-03-22T09:21:10;68.33;;;39.73;;
19235;SDS011;9752;54.270;12.470;2024-03-22T09:26:12;70.13;;;42.43;;
19235;SDS011;9752;54.270;12.470;2024-03-22T09:31:15;65.23;;;42.00;;
19235;SDS011;9752;54.270;12.470;2024-03-22T09:36:17;68.33;;;42.57;;
19235;SDS011;9752;54.270;12.470;2024-03-22T09:41:20;69.20;;;45.20;;
19235;SDS011;9752;54.270;12.470;2024-03-22T09:46:27;70.67;;;43.00;;
19235;SDS011;9752;54.270;12.470;2024-03-22T09:51:29;70.50;;;44.73;;
19235;SDS011;9752;54.270;12.470;2024-03-22T09:56:33;79.37;;;48.53;;
19235;SDS011;9752;54.270;12.470;2024-03-22T10:01:38;81.17;;;47.53;;
19235;SDS011;9752;54.270;12.470;2024-03-22T10:06:41;73.67;;;45.60;;
19235;SDS011;9752;54.270;12.470;2024-03-22T10:11:42;82.57;;;48.43;;
19235;SDS011;9752;54.270;12.470;2024-03-22T10:16:46;83.57;;;47.13;;
19235;SDS011;9752;54.270;12.470;2024-03-22T10:21:48;77.67;;;48.43;;
19235;SDS011;9752;54.270;12.470;2024-03-22T10:27:00;81.03;;;49.07;;
19235;SDS011;9752;54.270;12.470;2024-03-22T10:32:04;79.77;;;51.00;;
19235;SDS011;9752;54.270;12.470;2024-03-22T10:37:06;82.43;;;48.87;;
19235;SDS011;9752;54.270;12.470;2024-03-22T10:42:11;81.83;;;48.97;;
19235;SDS011;9752;54.270;12.470;2024-03-22T10:47:16;84.27;;;50.70;;
19235;SDS011;9752;54.270;12.470;2024-03-22T10:52:19;77.70;;;49.13;;
19235;SDS011;9752;54.270;12.470;2024-03-22T10:57:21;93.27;;;51.40;;
19235;SDS011;9752;54.270;12.470;2024-03-22T11:02:25;84.07;;;51.80;;
19235;SDS011;9752;54.270;12.470;2024-03-22T11:07:29;85.63;;;50.80;;
19235;SDS011;9752;54.270;12.470;2024-03-22T11:12:31;88.27;;;50.17;;
19235;SDS011;9752;54.270;12.470;2024-03-22T11:17:35;91.03;;;54.87;;
19235;SDS011;9752;54.270;12.470;2024-03-22T11:22:36;94.07;;;54.33;;
19235;SDS011;9752;54.270;12.470;2024-03-22T11:27:38;94.73;;;54.40;;
19235;SDS011;9752;54.270;12.470;2024-03-22T11:32:41;98.30;;;56.23;;
19235;SDS011;9752;54.270;12.470;2024-03-22T11:37:45;95.73;;;56.60;;
19235;SDS011;9752;54.270;12.470;2024-03-22T11:42:47;92.57;;;52.87;;
19235;SDS011;9752;54.270;12.470;2024-03-22T11:47:53;84.27;;;53.73;;
19235;SDS011;9752;54.270;12.470;2024-03-22T11:52:54;92.13;;;52.20;;
19235;SDS011;9752;54.270;12.470;2024-03-22T11:57:57;76.07;;;48.47;;
19235;SDS011;9752;54.270;12.470;2024-03-22T12:03:00;78.20;;;46.40;;
19235;SDS011;9752;54.270;12.470;2024-03-22T12:08:01;65.27;;;40.97;;
19235;SDS011;9752;54.270;12.470;2024-03-22T12:13:03;61.37;;;38.87;;
19235;SDS011;9752;54.270;12.470;2024-03-22T12:18:06;56.93;;;39.53;;
19235;SDS011;9752;54.270;12.470;2024-03-22T12:23:08;55.13;;;36.60;;
19235;SDS011;9752;54.270;12.470;2024-03-22T12:28:09;59.03;;;38.57;;
19235;SDS011;9752;54.270;12.470;2024-03-22T12:33:12;60.27;;;39.57;;
19235;SDS011;9752;54.270;12.470;2024-03-22T12:38:14;53.83;;;36.63;;
19235;SDS011;9752;54.270;12.470;2024-03-22T12:43:15;62.10;;;37.00;;
19235;SDS011;9752;54.270;12.470;2024-03-22T12:48:18;58.07;;;37.00;;
19235;SDS011;9752;54.270;12.470;2024-03-22T12:53:20;54.60;;;37.30;;
19235;SDS011;9752;54.270;12.470;2024-03-22T12:58:22;51.43;;;34.33;;
19235;SDS011;9752;54.270;12.470;2024-03-22T13:03:24;52.07;;;31.07;;
19235;SDS011;9752;54.270;12.470;2024-03-22T13:08:26;53.23;;;34.13;;
19235;SDS011;9752;54.270;12.470;2024-03-22T13:13:28;46.40;;;30.57;;
19235;SDS011;9752;54.270;12.470;2024-03-22T13:18:30;45.10;;;29.40;;
19235;SDS011;9752;54.270;12.470;2024-03-22T13:23:32;44.70;;;31.00;;
19235;SDS011;9752;54.270;12.470;2024-03-22T13:28:34;44.17;;;29.93;;
19235;SDS011;9752;54.270;12.470;2024-03-22T13:33:37;35.60;;;25.97;;
19235;SDS011;9752;54.270;12.470;2024-03-22T13:38:39;34.77;;;22.57;;
19235;SDS011;9752;54.270;12.470;2024-03-22T13:43:41;31.33;;;21.07;;
19235;SDS011;9752;54.270;12.470;2024-03-22T13:48:46;26.30;;;20.50;;
19235;SDS011;9752;54.270;12.470;2024-03-22T13:53:48;29.97;;;17.07;;
19235;SDS011;9752;54.270;12.470;2024-03-22T13:58:49;19.77;;;15.10;;
19235;SDS011;9752;54.270;12.470;2024-03-22T14:03:52;20.83;;;16.23;;
19235;SDS011;9752;54.270;12.470;2024-03-22T14:08:54;25.17;;;16.17;;
19235;SDS011;9752;54.270;12.470;2024-03-22T14:14:00;20.90;;;14.37;;
19235;SDS011;9752;54.270;12.470;2024-03-22T14:19:03;20.43;;;15.30;;
19235;SDS011;9752;54.270;12.470;2024-03-22T14:24:05;20.30;;;14.20;;
19235;SDS011;9752;54.270;12.470;2024-03-22T14:29:08;16.17;;;12.20;;
19235;SDS011;9752;54.270;12.470;2024-03-22T14:34:11;15.30;;;11.90;;
19235;SDS011;9752;54.270;12.470;2024-03-22T14:39:13;13.20;;;10.50;;
19235;SDS011;9752;54.270;12.470;2024-03-22T14:44:14;16.67;;;11.10;;
19235;SDS011;9752;54.270;12.470;2024-03-22T14:49:17;12.63;;;9.90;;
19235;SDS011;9752;54.270;12.470;2024-03-22T14:54:20;14.77;;;9.50;;
19235;SDS011;9752;54.270;12.470;2024-03-22T14:59:22;14.97;;;10.27;;
19235;SDS011;9752;54.270;12.470;2024-03-22T15:04:25;13.07;;;8.73;;
19235;SDS011;9752;54.270;12.470;2024-03-22T15:09:26;11.57;;;9.13;;
19235;SDS011;9752;54.270;12.470;2024-03-22T15:14:28;14.97;;;10.30;;
19235;SDS011;9752;54.270;12.470;2024-03-22T15:19:32;19.57;;;13.53;;
19235;SDS011;9752;54.270;12.470;2024-03-22T15:24:34;19.97;;;15.20;;
19235;SDS011;9752;54.270;12.470;2024-03-22T15:29:35;21.00;;;14.60;;
19235;SDS011;9752;54.270;12.470;2024-03-22T15:34:38;20.37;;;14.63;;
19235;SDS011;9752;54.270;12.470;2024-03-22T15:39:40;18.83;;;13.60;;
19235;SDS011;9752;54.270;12.470;2024-03-22T15:44:41;15.90;;;12.30;;
19235;SDS011;9752;54.270;12.470;2024-03-22T15:49:45;13.87;;;10.83;;
19235;SDS011;9752;54.270;12.470;2024-03-22T15:54:47;12.10;;;9.77;;
19235;SDS011;9752;54.270;12.470;2024-03-22T15:59:48;16.70;;;10.43;;
19235;SDS011;9752;54.270;12.470;2024-03-22T16:04:52;17.13;;;8.90;;
19235;SDS011;9752;54.270;12.470;2024-03-22T16:09:53;14.57;;;7.63;;
19235;SDS011;9752;54.270;12.470;2024-03-22T16:14:56;14.53;;;6.87;;
19235;SDS011;9752;54.270;12.470;2024-03-22T16:19:59;12.33;;;6.50;;
19235;SDS011;9752;54.270;12.470;2024-03-22T16:25:01;9.80;;;6.10;;
19235;SDS011;9752;54.270;12.470;2024-03-22T16:30:02;12.87;;;7.20;;
19235;SDS011;9752;54.270;12.470;2024-03-22T16:35:06;11.03;;;6.40;;
19235;SDS011;9752;54.270;12.470;2024-03-22T16:40:09;17.10;;;7.30;;
19235;SDS011;9752;54.270;12.470;2024-03-22T16:45:11;17.43;;;7.10;;
19235;SDS011;9752;54.270;12.470;2024-03-22T16:50:14;17.80;;;7.87;;
19235;SDS011;9752;54.270;12.470;2024-03-22T16:55:16;12.40;;;6.80;;
19235;SDS011;9752;54.270;12.470;2024-03-22T17:00:18;17.87;;;6.83;;
19235;SDS011;9752;54.270;12.470;2024-03-22T17:05:21;21.20;;;7.87;;
19235;SDS011;9752;54.270;12.470;2024-03-22T17:10:22;18.43;;;7.20;;
19235;SDS011;9752;54.270;12.470;2024-03-22T17:15:24;18.97;;;7.70;;
19235;SDS011;9752;54.270;12.470;2024-03-22T17:20:27;15.83;;;7.73;;
19235;SDS011;9752;54.270;12.470;2024-03-22T17:25:31;13.90;;;7.60;;
19235;SDS011;9752;54.270;12.470;2024-03-22T17:30:32;20.50;;;7.70;;
19235;SDS011;9752;54.270;12.470;2024-03-22T17:35:35;21.00;;;7.53;;
19235;SDS011;9752;54.270;12.470;2024-03-22T17:40:38;26.00;;;9.03;;
19235;SDS011;9752;54.270;12.470;2024-03-22T17:45:40;31.67;;;9.63;;
19235;SDS011;9752;54.270;12.470;2024-03-22T17:50:42;19.40;;;7.73;;
19235;SDS011;9752;54.270;12.470;2024-03-22T17:55:44;22.20;;;7.17;;
19235;SDS011;9752;54.270;12.470;2024-03-22T18:00:46;25.27;;;9.97;;
19235;SDS011;9752;54.270;12.470;2024-03-22T18:05:49;20.37;;;7.63;;
19235;SDS011;9752;54.270;12.470;2024-03-22T18:10:50;21.10;;;8.43;;
19235;SDS011;9752;54.270;12.470;2024-03-22T18:15:52;33.00;;;9.50;;
19235;SDS011;9752;54.270;12.470;2024-03-22T18:20:55;24.60;;;8.97;;
19235;SDS011;9752;54.270;12.470;2024-03-22T18:25:57;32.07;;;10.40;;
19235;SDS011;9752;54.270;12.470;2024-03-22T18:30:59;30.53;;;9.43;;
19235;SDS011;9752;54.270;12.470;2024-03-22T18:36:02;33.00;;;10.63;;
19235;SDS011;9752;54.270;12.470;2024-03-22T18:41:04;37.90;;;10.57;;
19235;SDS011;9752;54.270;12.470;2024-03-22T18:46:06;31.67;;;9.03;;
19235;SDS011;9752;54.270;12.470;2024-03-22T18:51:09;36.13;;;11.50;;
19235;SDS011;9752;54.270;12.470;2024-03-22T18:56:13;33.33;;;9.53;;
19235;SDS011;9752;54.270;12.470;2024-03-22T19:01:16;30.77;;;9.63;;
19235;SDS011;9752;54.270;12.470;2024-03-22T19:06:19;25.93;;;9.53;;
19235;SDS011;9752;54.270;12.470;2024-03-22T19:11:21;26.53;;;9.63;;
19235;SDS011;9752;54.270;12.470;2024-03-22T19:16:23;31.47;;;10.53;;
19235;SDS011;9752;54.270;12.470;2024-03-22T19:21:27;40.43;;;10.93;;
19235;SDS011;9752;54.270;12.470;2024-03-22T19:26:28;33.33;;;11.13;;
19235;SDS011;9752;54.270;12.470;2024-03-22T19:31:30;32.70;;;11.60;;
19235;SDS011;9752;54.270;12.470;2024-03-22T19:36:33;24.93;;;8.87;;
19235;SDS011;9752;54.270;12.470;2024-03-22T19:41:34;36.30;;;11.20;;
19235;SDS011;9752;54.270;12.470;2024-03-22T19:46:37;28.53;;;10.70;;
19235;SDS011;9752;54.270;12.470;2024-03-22T19:51:40;29.50;;;10.00;;
19235;SDS011;9752;54.270;12.470;2024-03-22T19:56:41;26.03;;;10.80;;
19235;SDS011;9752;54.270;12.470;2024-03-22T20:01:46;22.60;;;9.97;;
19235;SDS011;9752;54.270;12.470;2024-03-22T20:06:49;30.03;;;10.53;;
19235;SDS011;9752;54.270;12.470;2024-03-22T20:11:51;25.00;;;10.33;;
19235;SDS011;9752;54.270;12.470;2024-03-22T20:16:52;37.27;;;11.30;;
19235;SDS011;9752;54.270;12.470;2024-03-22T20:21:55;33.33;;;10.47;;
19235;SDS011;9752;54.270;12.470;2024-03-22T20:26:58;23.77;;;10.83;;
19235;SDS011;9752;54.270;12.470;2024-03-22T20:32:00;24.33;;;9.20;;
19235;SDS011;9752;54.270;12.470;2024-03-22T20:37:03;24.10;;;8.93;;
